Time;durP1;ratioP1;P1;durP2;ratioP2;P2;SDS_P1;SDS_P2;PMS_P1;PMS_P2;Temp;Humidity;BMP_temperature;BMP_pressure;BME280_temperature;BME280_humidity;BME280_pressure;Samples;Min_cycle;Max_cycle;Signal;HPM_P1;HPM_P2
2022/10/11 00:02:19;;;;;;;14.77;9.63;;;;;;;14.87;75.71;97864.81;5046968;28;20194;-75
2022/10/11 00:04:46;;;;;;;14.33;10.83;;;;;;;14.96;75.03;97856.53;5046503;28;20266;-77
2022/10/11 00:07:13;;;;;;;17.03;10.17;;;;;;;15.04;75.11;97857.84;5049536;28;20692;-75
2022/10/11 00:09:42;;;;;;;17.70;10.73;;;;;;;14.83;75.57;97842.41;5049476;28;20283;-76
2022/10/11 00:12:10;;;;;;;18.70;11.37;;;;;;;14.97;75.37;97863.44;5048305;28;20187;-78
2022/10/11 00:14:37;;;;;;;13.70;10.70;;;;;;;14.90;75.63;97851.63;5047708;28;20642;-79
2022/10/11 00:17:06;;;;;;;15.67;11.20;;;;;;;14.90;75.49;97847.25;5048030;28;20180;-75
2022/10/11 00:19:33;;;;;;;14.17;9.90;;;;;;;15.03;75.22;97863.13;5046992;28;20640;-78
2022/10/11 00:22:18;;;;;;;15.53;9.97;;;;;;;14.94;74.76;97832.31;5126905;27;21130;-77
2022/10/11 00:25:05;;;;;;;14.17;10.03;;;;;;;15.24;74.82;97873.31;5080626;27;1362276;-77
2022/10/11 00:27:44;;;;;;;14.90;9.50;;;;;;;15.30;74.10;97864.34;5087497;27;1298097;-76
2022/10/11 00:30:25;;;;;;;12.47;9.27;;;;;;;15.36;74.24;97854.44;5128316;27;21357;-77
2022/10/11 00:33:06;;;;;;;15.73;10.47;;;;;;;15.50;73.32;97856.34;5086346;27;20553;-77
2022/10/11 00:35:45;;;;;;;13.20;9.27;;;;;;;15.40;73.82;97853.34;5079975;27;1386280;-76
2022/10/11 00:38:27;;;;;;;12.90;9.03;;;;;;;15.42;73.98;97845.41;5106770;27;21445;-76
2022/10/11 00:41:09;;;;;;;14.63;9.13;;;;;;;15.38;73.95;97846.50;5084821;27;1308735;-77
2022/10/11 00:44:11;;;;;;;13.97;9.40;;;;;;;15.28;74.89;97845.31;5086843;27;20570;-76
2022/10/11 00:47:07;;;;;;;14.67;9.73;;;;;;;15.37;74.22;97842.22;5085195;27;1302041;-77
2022/10/11 00:49:54;;;;;;;11.83;9.77;;;;;;;15.37;74.42;97848.25;5080002;27;1382026;-77
2022/10/11 00:52:40;;;;;;;15.53;9.77;;;;;;;15.21;74.40;97849.13;5050934;27;2208571;-76
2022/10/11 00:55:28;;;;;;;16.63;9.87;;;;;;;14.97;75.29;97840.81;5086310;27;20560;-76
2022/10/11 00:58:12;;;;;;;16.73;11.47;;;;;;;14.78;76.71;97831.34;5087065;28;20560;-77
2022/10/11 01:00:53;;;;;;;15.53;10.17;;;;;;;14.48;77.80;97834.56;5087651;27;20556;-77
2022/10/11 01:03:39;;;;;;;15.33;11.33;;;;;;;14.35;78.20;97830.84;5086913;27;20564;-76
2022/10/11 01:06:34;;;;;;;16.23;11.60;;;;;;;14.31;79.41;97836.28;5107101;27;21163;-76
2022/10/11 01:09:13;;;;;;;15.13;11.03;;;;;;;14.23;79.85;97827.97;5079648;27;1399031;-79
2022/10/11 01:11:58;;;;;;;18.77;11.60;;;;;;;14.16;80.57;97830.00;5083235;27;1295365;-76
2022/10/11 01:14:54;;;;;;;16.43;10.67;;;;;;;14.31;80.38;97831.94;5065755;27;20574;-77
2022/10/11 01:18:12;;;;;;;13.67;9.10;;;;;;;14.40;80.33;97828.03;5082859;27;1309822;-77
2022/10/11 01:21:01;;;;;;;14.73;10.67;;;;;;;14.45;80.30;97824.28;5083079;27;1310451;-76
2022/10/11 01:23:51;;;;;;;14.47;10.33;;;;;;;14.47;79.95;97819.84;5033726;27;2727186;-78
2022/10/11 01:27:24;;;;;;;14.53;10.17;;;;;;;14.50;80.04;97818.84;5088140;27;20949;-75
2022/10/11 01:30:21;;;;;;;12.60;9.77;;;;;;;14.48;80.52;97818.09;5087891;27;20506;-76
2022/10/11 01:33:20;;;;;;;15.30;9.60;;;;;;;14.64;79.73;97801.63;5108285;27;20550;-78
2022/10/11 01:36:08;;;;;;;15.40;10.13;;;;;;;14.63;79.94;97797.31;5087823;27;20553;-74
2022/10/11 01:38:55;;;;;;;14.80;10.23;;;;;;;14.51;80.14;97803.13;5064720;27;1438757;-74
2022/10/11 01:41:40;;;;;;;19.30;10.40;;;;;;;14.57;79.86;97808.03;5085138;27;1371676;-75
2022/10/11 01:44:23;;;;;;;19.20;10.70;;;;;;;14.58;79.32;97791.50;5088529;27;1294614;-75
2022/10/11 01:47:03;;;;;;;12.97;9.30;;;;;;;14.59;80.09;97798.38;5089696;27;20950;-75
2022/10/11 01:49:53;;;;;;;13.37;9.37;;;;;;;14.71;79.49;97804.75;5091746;27;20603;-74
2022/10/11 01:52:42;;;;;;;16.17;10.10;;;;;;;14.57;80.11;97776.75;5111032;27;20558;-74
2022/10/11 01:55:40;;;;;;;13.10;9.20;;;;;;;14.73;79.91;97794.25;5090286;27;20572;-74
2022/10/11 01:58:30;;;;;;;15.60;9.63;;;;;;;14.63;80.60;97786.06;5086175;27;1379873;-75
2022/10/11 02:01:50;;;;;;;15.53;9.37;;;;;;;14.66;80.50;97789.34;5087062;27;1360558;-74
2022/10/11 02:04:37;;;;;;;16.73;9.30;;;;;;;14.80;80.12;97785.19;5050021;28;20583;-76
2022/10/11 02:07:19;;;;;;;15.57;8.90;;;;;;;14.96;79.45;97786.13;5085326;27;1376912;-75
2022/10/11 02:10:14;;;;;;;14.67;9.27;;;;;;;14.93;79.09;97781.88;5048606;27;20559;-76
2022/10/11 02:12:58;;;;;;;10.50;8.73;;;;;;;14.91;79.32;97777.66;5108788;27;20548;-75
2022/10/11 02:15:44;;;;;;;15.63;8.43;;;;;;;15.08;78.45;97788.94;4991836;27;3940323;-76
2022/10/11 02:18:32;;;;;;;11.07;8.23;;;;;;;15.14;78.27;97791.22;5087804;27;1310171;-75
2022/10/11 02:21:15;;;;;;;12.33;8.40;;;;;;;15.25;77.99;97790.69;5109451;27;20564;-75
2022/10/11 02:24:15;;;;;;;11.40;8.07;;;;;;;15.22;78.41;97783.84;5083492;27;1305901;-75
2022/10/11 02:26:58;;;;;;;11.27;8.40;;;;;;;15.17;78.48;97772.78;5037955;27;2569020;-76
2022/10/11 02:29:40;;;;;;;15.10;8.97;;;;;;;14.98;79.63;97776.44;5081332;27;1364558;-76
2022/10/11 02:32:23;;;;;;;13.10;8.53;;;;;;;15.07;79.23;97778.56;5064182;27;1313118;-75
2022/10/11 02:35:06;;;;;;;12.07;8.60;;;;;;;15.08;79.20;97780.25;5080826;27;1355719;-76
2022/10/11 02:38:04;;;;;;;12.30;8.20;;;;;;;15.10;78.69;97771.44;5126768;27;20549;-76
2022/10/11 02:40:53;;;;;;;11.43;8.30;;;;;;;15.10;79.10;97770.59;5082460;27;1316906;-75
2022/10/11 02:43:47;;;;;;;11.50;9.07;;;;;;;14.88;79.41;97770.03;5085827;27;21129;-76
2022/10/11 02:46:29;;;;;;;47.20;28.93;;;;;;;14.97;79.49;97775.59;5082148;27;1309686;-77
2022/10/11 02:49:12;;;;;;;17.27;11.43;;;;;;;14.78;80.24;97776.59;4611300;27;15059413;-76
2022/10/11 02:51:58;;;;;;;21.63;14.00;;;;;;;14.77;80.87;97769.72;5081947;27;1329104;-77
2022/10/11 02:54:40;;;;;;;18.33;11.23;;;;;;;14.68;81.01;97771.88;5082082;27;1315698;-76
2022/10/11 02:57:21;;;;;;;15.67;10.30;;;;;;;14.63;81.05;97771.25;5083008;27;1295077;-76
2022/10/11 03:00:03;;;;;;;23.63;11.87;;;;;;;14.71;80.98;97760.44;5099910;27;20568;-77
2022/10/11 03:02:44;;;;;;;16.50;11.47;;;;;;;14.56;81.18;97762.06;5105286;27;20545;-76
2022/10/11 03:05:29;;;;;;;13.97;9.70;;;;;;;14.74;80.63;97764.63;5086155;27;20561;-76
2022/10/11 03:08:09;;;;;;;15.20;10.17;;;;;;;14.86;80.13;97761.44;4981211;27;4167056;-75
2022/10/11 03:10:47;;;;;;;14.47;9.97;;;;;;;14.92;80.19;97763.72;4942295;27;5320181;-76
2022/10/11 03:13:27;;;;;;;15.23;11.00;;;;;;;14.75;80.62;97761.97;5086204;27;20560;-76
2022/10/11 03:16:09;;;;;;;12.70;8.77;;;;;;;14.79;80.16;97750.47;5082050;27;1367380;-75
2022/10/11 03:18:51;;;;;;;11.73;8.27;;;;;;;14.94;79.74;97754.88;5082799;27;1299274;-78
2022/10/11 03:21:32;;;;;;;11.53;8.80;;;;;;;15.00;79.29;97753.72;5086587;27;20565;-79
2022/10/11 03:24:14;;;;;;;17.77;9.70;;;;;;;14.95;79.36;97756.56;5084469;27;1306012;-79
2022/10/11 03:27:05;;;;;;;10.80;8.47;;;;;;;14.57;80.24;97726.38;5072795;27;1638054;-77
2022/10/11 03:29:44;;;;;;;14.70;9.17;;;;;;;14.65;81.18;97750.31;5035136;27;2641279;-77
2022/10/11 03:32:24;;;;;;;14.97;9.10;;;;;;;14.57;80.87;97737.66;4976046;27;4481211;-78
2022/10/11 03:35:06;;;;;;;18.57;9.43;;;;;;;14.34;82.65;97750.16;5072406;27;1585115;-76
2022/10/11 03:37:46;;;;;;;15.70;9.47;;;;;;;14.30;82.28;97741.63;5086304;27;20553;-77
2022/10/11 03:40:25;;;;;;;13.20;9.00;;;;;;;14.41;83.06;97744.56;5082862;27;1290134;-77
2022/10/11 03:43:03;;;;;;;15.57;9.37;;;;;;;14.34;82.28;97743.16;5082185;27;1300281;-78
2022/10/11 03:45:43;;;;;;;13.87;9.30;;;;;;;14.38;82.72;97743.88;5086052;27;20550;-77
2022/10/11 03:48:28;;;;;;;13.13;9.10;;;;;;;14.29;82.62;97750.38;5066050;27;20575;-76
2022/10/11 03:51:07;;;;;;;14.27;9.43;;;;;;;14.16;82.50;97718.00;5082606;27;1301736;-76
2022/10/11 03:53:47;;;;;;;12.90;9.37;;;;;;;14.34;82.82;97743.16;5106096;27;20955;-77
2022/10/11 03:56:27;;;;;;;12.23;8.90;;;;;;;14.44;83.00;97744.44;5084168;27;1313036;-75
2022/10/11 03:59:06;;;;;;;16.83;9.67;;;;;;;14.55;81.66;97736.03;5106575;27;20747;-78
2022/10/11 04:01:46;;;;;;;13.40;9.77;;;;;;;14.56;81.32;97745.56;5086158;27;21152;-77
2022/10/11 04:04:25;;;;;;;14.67;9.47;;;;;;;14.53;81.10;97736.13;5084484;27;1302147;-77
2022/10/11 04:07:03;;;;;;;14.30;9.97;;;;;;;14.52;81.49;97742.28;5084031;27;1315318;-77
2022/10/11 04:09:41;;;;;;;13.47;10.27;;;;;;;14.35;82.10;97752.69;5081858;27;1376709;-77
2022/10/11 04:12:21;;;;;;;15.37;10.87;;;;;;;14.25;82.66;97748.81;5086196;27;20545;-77
2022/10/11 04:14:59;;;;;;;17.53;11.67;;;;;;;14.19;83.11;97754.34;5080811;27;1353908;-77
2022/10/11 04:17:42;;;;;;;16.40;10.00;;;;;;;14.29;83.18;97750.38;5085999;27;20541;-78
2022/10/11 04:20:22;;;;;;;16.90;9.50;;;;;;;14.20;82.50;97740.38;5085500;27;21445;-79
2022/10/11 04:23:02;;;;;;;17.83;9.90;;;;;;;14.20;83.14;97744.75;5086381;27;20561;-76
2022/10/11 04:25:40;;;;;;;14.03;9.57;;;;;;;14.23;83.04;97740.25;5083502;27;1356578;-78
2022/10/11 04:28:18;;;;;;;13.13;9.97;;;;;;;14.27;82.83;97746.13;5084047;27;1313779;-77
2022/10/11 04:30:58;;;;;;;16.20;10.53;;;;;;;14.12;83.48;97744.25;5085965;27;20557;-74
2022/10/11 04:33:41;;;;;;;16.20;10.30;;;;;;;14.14;83.67;97740.66;5066046;28;20561;-76
2022/10/11 04:36:24;;;;;;;14.87;10.80;;;;;;;14.11;83.81;97746.03;5082404;27;1291382;-76
2022/10/11 04:39:06;;;;;;;15.80;10.43;;;;;;;14.07;84.44;97744.50;5085974;28;20554;-77
2022/10/11 04:41:44;;;;;;;15.07;10.27;;;;;;;13.87;84.05;97723.78;5073915;27;1544595;-78
2022/10/11 04:44:24;;;;;;;16.43;10.90;;;;;;;13.82;84.54;97734.44;5073388;27;1625851;-77
2022/10/11 04:47:02;;;;;;;22.23;11.80;;;;;;;13.69;84.31;97696.00;5073960;27;1605028;-78
2022/10/11 04:49:42;;;;;;;16.73;10.80;;;;;;;13.94;84.32;97735.59;5074145;27;1603866;-75
2022/10/11 04:52:22;;;;;;;16.47;10.93;;;;;;;14.11;83.90;97746.03;5085777;27;20555;-77
2022/10/11 04:55:05;;;;;;;17.07;11.17;;;;;;;13.96;84.80;97740.72;5127130;27;20565;-76
2022/10/11 04:57:44;;;;;;;21.33;10.98;;;;;;;13.70;85.02;97703.75;5062849;27;1366336;-76
2022/10/11 05:00:23;;;;;;;19.98;11.38;;;;;;;13.78;85.19;97732.88;5080546;27;1372385;-77
2022/10/11 05:03:05;;;;;;;13.20;10.37;;;;;;;13.84;85.10;97744.75;5065009;27;1360259;-77
2022/10/11 05:05:52;;;;;;;16.90;10.33;;;;;;;13.91;85.69;97747.91;5066731;27;21152;-77
2022/10/11 05:08:30;;;;;;;18.83;10.57;;;;;;;13.96;84.81;97727.69;5071110;27;1608755;-77
2022/10/11 05:11:12;;;;;;;14.83;10.57;;;;;;;14.26;84.03;97742.66;5082606;27;1302099;-78
2022/10/11 05:13:55;;;;;;;14.60;9.90;;;;;;;14.34;83.32;97748.38;5082626;27;1304413;-78
2022/10/11 05:16:37;;;;;;;16.70;9.80;;;;;;;14.38;82.93;97739.53;5085976;27;1316294;-78
2022/10/11 05:19:16;;;;;;;16.70;9.80;;;;;;;14.24;82.77;97741.09;5082485;27;1351479;-77
2022/10/11 05:21:56;;;;;;;16.37;9.27;;;;;;;14.33;82.96;97749.31;5080548;27;1442694;-77
2022/10/11 05:24:36;;;;;;;14.03;10.60;;;;;;;14.38;82.56;97742.13;5090077;27;1317914;-77
2022/10/11 05:27:19;;;;;;;17.70;10.63;;;;;;;14.64;81.82;97749.47;5086594;27;20627;-78
2022/10/11 05:30:03;;;;;;;16.63;9.70;;;;;;;14.80;80.71;97756.50;5086352;27;20907;-76
2022/10/11 05:32:43;;;;;;;18.47;10.47;;;;;;;15.06;79.40;97753.41;5083986;27;1311004;-78
2022/10/11 05:35:24;;;;;;;14.67;9.77;;;;;;;15.12;79.07;97758.31;5084154;27;1308919;-78
2022/10/11 05:38:07;;;;;;;16.50;10.53;;;;;;;15.21;78.48;97757.81;5085534;27;20550;-79
2022/10/11 05:40:46;;;;;;;20.70;10.33;;;;;;;15.22;78.15;97759.50;4978374;27;4214947;-77
2022/10/11 05:43:26;;;;;;;15.27;10.57;;;;;;;15.28;78.15;97754.81;5084413;27;1304703;-78
2022/10/11 05:46:10;;;;;;;38.07;24.60;;;;;;;15.32;78.15;97763.31;5106380;27;20567;-77
2022/10/11 05:48:48;;;;;;;20.30;11.10;;;;;;;14.82;79.55;97745.06;5083207;27;1336455;-77
2022/10/11 05:51:26;;;;;;;22.70;13.40;;;;;;;15.00;79.80;97754.56;5069142;27;1671072;-77
2022/10/11 05:54:09;;;;;;;20.63;14.03;;;;;;;14.90;79.43;97735.09;5071561;27;1606363;-77
2022/10/11 05:56:48;;;;;;;29.40;15.23;;;;;;;14.85;80.27;97757.13;5082111;27;1305339;-77
2022/10/11 05:59:27;;;;;;;21.50;13.30;;;;;;;14.61;81.34;97736.59;5105976;27;20548;-77
2022/10/11 06:02:12;;;;;;;19.60;13.60;;;;;;;14.80;81.03;97754.75;5085948;27;20546;-75
2022/10/11 06:04:51;;;;;;;30.40;12.70;;;;;;;15.03;79.25;97743.13;5032341;27;2200978;-78
2022/10/11 06:07:38;;;;;;;22.27;13.10;;;;;;;15.25;78.50;97761.97;5078678;27;1404824;-78
2022/10/11 06:10:16;;;;;;;27.10;14.93;;;;;;;15.43;77.91;97753.19;5039324;27;2827916;-80
2022/10/11 06:12:57;;;;;;;33.73;16.20;;;;;;;15.45;77.54;97759.16;5061570;27;1936040;-78
2022/10/11 06:15:38;;;;;;;22.97;14.63;;;;;;;15.46;77.52;97768.66;4486736;27;18591437;-79
2022/10/11 06:18:17;;;;;;;24.73;15.47;;;;;;;15.65;77.15;97758.06;4486550;27;18590410;-78
2022/10/11 06:21:00;;;;;;;25.33;16.23;;;;;;;15.89;76.19;97767.19;4480508;27;18763913;-78
2022/10/11 06:23:48;;;;;;;28.47;16.87;;;;;;;16.04;75.67;97761.97;4488556;27;18590439;-80
2022/10/11 06:26:50;;;;;;;23.50;14.63;;;;;;;16.17;74.95;97752.50;5189112;27;20516;-79
2022/10/11 06:29:48;;;;;;;29.77;14.23;;;;;;;16.15;74.54;97770.03;5189371;27;20648;-78
2022/10/11 06:32:59;;;;;;;30.70;14.60;;;;;;;16.20;73.96;97754.94;5144016;27;20530;-77
2022/10/11 06:36:05;;;;;;;31.53;15.53;;;;;;;16.20;73.97;97754.09;5024157;28;20645;-79
2022/10/11 06:39:04;;;;;;;29.77;14.73;;;;;;;16.43;73.96;97765.84;5188398;27;21056;-76
2022/10/11 06:42:01;;;;;;;29.97;16.83;;;;;;;16.76;72.04;97770.00;5188938;27;20979;-78
2022/10/11 06:44:57;;;;;;;25.50;12.93;;;;;;;16.92;71.16;97767.31;5066990;27;20532;-76
2022/10/11 06:48:19;;;;;;;18.90;12.20;;;;;;;16.88;70.57;97768.41;5102794;27;21213;-77
2022/10/11 06:51:24;;;;;;;15.17;9.70;;;;;;;17.03;68.57;97775.38;5106742;27;20605;-78
2022/10/11 06:54:25;;;;;;;18.40;10.70;;;;;;;16.73;69.36;97751.03;5189013;27;20558;-77
2022/10/11 06:57:23;;;;;;;19.47;11.57;;;;;;;17.04;69.41;97774.44;5188381;27;21031;-79
2022/10/11 07:00:17;;;;;;;19.57;10.17;;;;;;;16.92;68.65;97773.38;5116914;27;20514;-80
2022/10/11 07:03:16;;;;;;;23.47;13.53;;;;;;;17.17;68.42;97778.00;5109186;27;20528;-78
2022/10/11 07:06:23;;;;;;;21.57;13.53;;;;;;;17.17;68.70;97769.28;5084522;27;20521;-77
2022/10/11 07:09:19;;;;;;;25.00;11.77;;;;;;;17.30;68.21;97781.56;5084292;27;20585;-77
2022/10/11 07:12:20;;;;;;;16.87;8.83;;;;;;;17.34;66.90;97775.22;5187884;27;20536;-77
2022/10/11 07:15:27;;;;;;;13.60;7.60;;;;;;;17.24;67.20;97776.72;5114955;27;20554;-82
2022/10/11 07:18:30;;;;;;;18.07;9.07;;;;;;;17.16;67.79;97760.63;5083669;27;20519;-77
2022/10/11 07:21:29;;;;;;;12.73;7.40;;;;;;;17.43;66.67;97769.41;5085613;27;20614;-79
2022/10/11 07:24:30;;;;;;;18.17;8.87;;;;;;;17.52;66.38;97774.09;5086916;27;20622;-78
2022/10/11 07:27:40;;;;;;;14.67;8.13;;;;;;;17.21;67.45;97773.44;5107133;27;20587;-79
2022/10/11 07:30:41;;;;;;;13.00;7.40;;;;;;;17.32;66.92;97771.00;5085693;27;20522;-81
2022/10/11 07:33:38;;;;;;;12.30;9.07;;;;;;;17.16;66.48;97773.72;5114610;27;20516;-77
2022/10/11 07:36:37;;;;;;;11.13;7.07;;;;;;;17.29;66.29;97765.97;5188859;27;20575;-79
2022/10/11 07:39:38;;;;;;;13.20;7.37;;;;;;;17.25;67.00;97769.69;5044904;28;20543;-78
2022/10/11 07:42:32;;;;;;;13.20;7.07;;;;;;;17.42;66.86;97764.25;5104657;27;20623;-78
2022/10/11 07:45:29;;;;;;;11.23;6.10;;;;;;;17.37;66.04;97754.06;5187969;27;21000;-79
2022/10/11 07:48:35;;;;;;;16.33;7.93;;;;;;;17.30;67.23;97768.47;5044610;28;20503;-78
2022/10/11 07:51:33;;;;;;;8.73;6.10;;;;;;;17.50;65.80;97759.41;5086554;27;20896;-79
2022/10/11 07:54:38;;;;;;;10.47;6.93;;;;;;;17.27;66.73;97768.66;5085360;27;21084;-77
2022/10/11 07:57:36;;;;;;;11.77;6.60;;;;;;;17.22;67.05;97765.50;5085873;27;20518;-80
2022/10/11 08:00:42;;;;;;;11.63;7.50;;;;;;;17.30;66.84;97741.44;5085165;27;20528;-77
2022/10/11 08:03:57;;;;;;;9.73;6.17;;;;;;;17.26;66.56;97735.56;5106169;27;20519;-77
2022/10/11 08:06:51;;;;;;;10.33;6.97;;;;;;;17.18;67.70;97769.22;5085700;27;21072;-79
2022/10/11 08:09:49;;;;;;;9.03;6.60;;;;;;;17.48;66.01;97751.63;5086249;27;20523;-77
2022/10/11 08:12:46;;;;;;;10.33;7.47;;;;;;;18.06;64.45;97767.19;5085640;27;21075;-78
2022/10/11 08:16:09;;;;;;;16.00;6.93;;;;;;;17.99;64.11;97726.56;5086466;27;20540;-79
2022/10/11 08:19:10;;;;;;;12.37;6.30;;;;;;;18.09;64.25;97758.28;5188601;27;21083;-77
2022/10/11 08:22:26;;;;;;;11.73;7.87;;;;;;;17.98;64.57;97758.13;5143848;27;20533;-78
2022/10/11 08:25:40;;;;;;;15.73;9.77;;;;;;;17.79;65.24;97746.19;5106560;27;20940;-77
2022/10/11 08:28:35;;;;;;;8.90;6.27;;;;;;;17.69;65.60;97752.94;5085535;27;21097;-78
2022/10/11 08:31:34;;;;;;;8.87;5.83;;;;;;;17.21;66.64;97753.31;5188090;27;20601;-78
2022/10/11 08:34:13;;;;;;;8.70;7.10;;;;;;;17.38;66.46;97750.53;4484456;27;18616882;-78
2022/10/11 08:37:08;;;;;;;10.30;7.83;;;;;;;17.47;66.34;97744.72;5085402;27;20524;-77
2022/10/11 08:40:14;;;;;;;8.97;6.00;;;;;;;17.56;66.09;97753.78;5083653;27;20591;-79
2022/10/11 08:43:47;;;;;;;20.67;12.17;;;;;;;17.56;65.37;97717.13;5114504;27;20531;-79
2022/10/11 08:47:19;;;;;;;16.53;8.97;;;;;;;17.82;65.17;97753.88;5106156;27;20541;-78
2022/10/11 08:50:04;;;;;;;13.77;9.67;;;;;;;17.99;64.74;97747.53;4609908;27;15060501;-79
2022/10/11 08:53:04;;;;;;;11.80;7.90;;;;;;;17.85;64.86;97743.19;5080545;27;20533;-78
2022/10/11 08:56:03;;;;;;;11.03;6.97;;;;;;;17.97;64.83;97743.34;5087400;27;20525;-79
2022/10/11 08:59:33;;;;;;;7.87;6.80;;;;;;;17.95;64.87;97742.59;5077138;27;20524;-78
2022/10/11 09:03:00;;;;;;;11.17;7.03;;;;;;;17.83;65.44;97734.56;5049038;28;20587;-75
2022/10/11 09:06:44;;;;;;;12.03;6.20;;;;;;;17.80;65.43;97733.94;5065896;28;20207;-76
2022/10/11 09:10:06;;;;;;;13.53;7.40;;;;;;;18.25;64.03;97732.75;5064454;28;20296;-79
2022/10/11 09:13:34;;;;;;;10.83;6.87;;;;;;;18.12;63.76;97724.00;5062851;28;20202;-78
2022/10/11 09:16:50;;;;;;;12.63;6.77;;;;;;;18.19;63.20;97727.91;5044073;28;20249;-74
2022/10/11 09:20:31;;;;;;;12.63;6.67;;;;;;;18.31;63.48;97722.72;5044827;28;20195;-77
2022/10/11 09:23:50;;;;;;;10.93;6.23;;;;;;;18.17;63.78;97720.16;5046924;28;20704;-80
2022/10/11 09:26:54;;;;;;;11.73;5.53;;;;;;;18.25;63.33;97728.34;5051044;28;20680;-76
2022/10/11 09:29:57;;;;;;;11.00;6.70;;;;;;;17.80;63.66;97732.13;5058735;28;20210;-78
2022/10/11 09:33:38;;;;;;;11.57;6.53;;;;;;;18.00;63.44;97725.63;5048211;28;20285;-76
2022/10/11 09:37:31;;;;;;;9.73;6.57;;;;;;;18.11;62.80;97720.56;5044547;28;20241;-77
2022/10/11 09:41:42;;;;;;;10.73;6.90;;;;;;;17.77;63.74;97690.44;5044824;28;20214;-77
2022/10/11 09:45:25;;;;;;;9.40;5.93;;;;;;;17.54;63.55;97684.94;4983594;28;20361;-81
2022/10/11 09:48:40;;;;;;;11.17;6.17;;;;;;;17.91;62.63;97712.28;4996163;28;20588;-78
2022/10/11 09:51:27;;;;;;;11.47;6.37;;;;;;;17.80;63.57;97695.44;5084901;28;20535;-80
2022/10/11 09:54:09;;;;;;;10.17;6.40;;;;;;;18.00;63.84;97706.44;5085304;28;20554;-79
2022/10/11 09:56:53;;;;;;;16.77;7.03;;;;;;;18.38;62.44;97702.97;5085533;27;21124;-79
2022/10/11 09:59:59;;;;;;;9.60;6.10;;;;;;;18.50;62.02;97706.63;5135152;27;20578;-77
2022/10/11 10:03:03;;;;;;;9.27;6.77;;;;;;;18.49;61.83;97704.94;5090779;28;20201;-78
2022/10/11 10:06:07;;;;;;;13.43;7.23;;;;;;;18.31;62.20;97687.78;5109696;27;20645;-77
2022/10/11 10:08:52;;;;;;;12.67;7.07;;;;;;;18.80;61.03;97701.94;5085480;27;20559;-81
2022/10/11 10:11:35;;;;;;;10.90;7.73;;;;;;;19.07;59.63;97696.56;5085591;27;20555;-79
2022/10/11 10:14:29;;;;;;;13.97;6.70;;;;;;;19.03;59.50;97692.47;5085376;27;21149;-80
2022/10/11 10:17:18;;;;;;;13.90;7.40;;;;;;;19.07;59.53;97686.06;5085562;28;20559;-78
2022/10/11 10:20:00;;;;;;;10.53;5.63;;;;;;;19.21;58.89;97673.66;5105580;27;20637;-77
2022/10/11 10:22:45;;;;;;;14.57;6.87;;;;;;;19.56;57.93;97679.06;5085916;27;20540;-78
2022/10/11 10:25:38;;;;;;;15.03;9.40;;;;;;;19.76;57.00;97677.66;5065223;28;21146;-79
2022/10/11 10:28:30;;;;;;;10.07;6.50;;;;;;;19.79;56.78;97685.31;5105207;27;20582;-77
2022/10/11 10:31:23;;;;;;;8.63;6.37;;;;;;;19.79;56.53;97674.78;5006132;28;20575;-78
2022/10/11 10:34:27;;;;;;;13.00;6.53;;;;;;;19.78;56.59;97675.75;5085938;27;20558;-79
2022/10/11 10:37:31;;;;;;;10.57;7.10;;;;;;;19.71;57.23;97685.03;5065023;28;20919;-78
2022/10/11 10:40:24;;;;;;;7.93;6.20;;;;;;;19.56;57.18;97678.25;5005878;28;20579;-80
2022/10/11 10:43:39;;;;;;;11.90;6.23;;;;;;;19.08;57.88;97620.31;5055758;27;1448328;-80
2022/10/11 10:46:48;;;;;;;7.83;5.73;;;;;;;19.41;57.48;97673.13;5096662;27;20547;-79
2022/10/11 10:49:39;;;;;;;11.47;7.00;;;;;;;19.57;57.94;97669.41;5051694;28;20569;-81
2022/10/11 10:53:14;;;;;;;13.33;7.57;;;;;;;19.62;57.55;97667.31;5085349;27;20609;-77
2022/10/11 10:56:21;;;;;;;7.73;5.63;;;;;;;19.68;57.34;97658.97;5081782;27;20685;-78
2022/10/11 10:59:24;;;;;;;10.53;7.23;;;;;;;19.70;56.82;97664.97;5085141;27;20580;-77
2022/10/11 11:02:22;;;;;;;9.00;6.53;;;;;;;19.76;56.35;97661.88;5125871;27;20524;-77
2022/10/11 11:05:44;;;;;;;10.33;6.67;;;;;;;19.38;57.92;97657.59;5105332;27;21079;-79
2022/10/11 11:08:45;;;;;;;11.47;6.67;;;;;;;19.22;58.70;97659.59;5126350;27;21069;-76
2022/10/11 11:11:37;;;;;;;12.37;7.70;;;;;;;19.32;58.62;97651.91;5106058;27;20578;-77
2022/10/11 11:14:42;;;;;;;11.57;7.90;;;;;;;19.48;58.59;97645.47;5146817;27;20908;-78
2022/10/11 11:17:44;;;;;;;9.47;6.60;;;;;;;19.85;57.24;97642.78;5065162;28;21175;-78
2022/10/11 11:20:51;;;;;;;12.20;6.77;;;;;;;19.99;56.73;97643.47;5006831;28;20559;-83
2022/10/11 11:24:29;;;;;;;11.53;6.50;;;;;;;19.93;56.64;97627.28;5108110;27;20559;-81
2022/10/11 11:27:16;;;;;;;8.97;7.00;;;;;;;19.97;56.65;97626.16;5072420;27;1656331;-80
2022/10/11 11:30:17;;;;;;;12.27;6.97;;;;;;;19.99;56.58;97618.97;5106724;27;20546;-79
2022/10/11 11:33:01;;;;;;;12.20;7.17;;;;;;;20.03;56.42;97615.16;5066198;28;20620;-79
2022/10/11 11:36:12;;;;;;;9.90;7.03;;;;;;;19.63;57.28;97621.66;5065928;28;20550;-77
2022/10/11 11:39:00;;;;;;;9.63;6.67;;;;;;;19.82;56.92;97608.88;5085768;27;20552;-78
2022/10/11 11:42:11;;;;;;;7.87;6.47;;;;;;;19.76;56.84;97619.84;5105148;27;20588;-80
2022/10/11 11:45:01;;;;;;;12.83;7.00;;;;;;;19.64;56.99;97602.34;5085757;27;20883;-79
2022/10/11 11:47:54;;;;;;;11.37;6.33;;;;;;;19.45;57.80;97622.03;5081164;27;20548;-77
2022/10/11 11:50:42;;;;;;;10.43;7.10;;;;;;;19.34;57.89;97614.09;5065563;27;1316680;-78
2022/10/11 11:53:41;;;;;;;11.13;6.43;;;;;;;19.36;57.41;97598.22;5065082;28;20562;-76
2022/10/11 11:56:53;;;;;;;12.83;6.70;;;;;;;19.22;58.57;97612.31;5085573;27;21059;-77
2022/10/11 11:59:51;;;;;;;10.40;7.10;;;;;;;19.24;57.99;97612.22;5057494;28;21227;-78
2022/10/11 12:02:59;;;;;;;11.30;6.93;;;;;;;19.17;57.72;97622.31;5084993;27;20561;-78
2022/10/11 12:06:27;;;;;;;10.17;6.33;;;;;;;19.08;59.10;97617.69;5085468;27;20561;-78
2022/10/11 12:09:22;;;;;;;11.90;7.47;;;;;;;19.46;58.04;97618.47;5105790;27;20914;-78
2022/10/11 12:12:08;;;;;;;12.03;7.40;;;;;;;19.53;57.19;97591.75;5064827;28;20552;-78
2022/10/11 12:15:07;;;;;;;8.60;6.63;;;;;;;19.72;56.16;97599.97;5074055;27;20573;-78
2022/10/11 12:17:55;;;;;;;10.30;7.30;;;;;;;19.71;56.38;97603.53;5085331;27;20548;-79
2022/10/11 12:20:39;;;;;;;18.77;8.97;;;;;;;19.66;56.40;97587.28;5085660;27;20576;-78
2022/10/11 12:23:27;;;;;;;10.47;7.30;;;;;;;19.74;56.78;97606.78;5106780;27;20550;-77
2022/10/11 12:26:17;;;;;;;8.60;6.27;;;;;;;19.95;56.30;97609.63;5062403;28;20966;-78
2022/10/11 12:29:02;;;;;;;11.80;6.33;;;;;;;19.89;55.69;97605.66;5064955;28;20558;-80
2022/10/11 12:31:46;;;;;;;9.97;6.40;;;;;;;19.47;56.12;97591.25;5085139;27;21122;-79
2022/10/11 12:34:33;;;;;;;11.83;6.63;;;;;;;19.69;56.24;97594.94;5084944;28;20240;-78
2022/10/11 12:37:18;;;;;;;11.33;6.57;;;;;;;19.53;57.26;97599.63;5084697;28;20257;-79
2022/10/11 12:39:56;;;;;;;8.57;6.13;;;;;;;19.46;57.49;97583.47;5086435;28;20559;-80
2022/10/11 12:42:25;;;;;;;9.87;7.10;;;;;;;19.73;57.00;97599.84;5083248;28;20523;-78
2022/10/11 12:45:11;;;;;;;12.83;7.90;;;;;;;19.81;56.42;97599.28;5085424;28;20240;-81
2022/10/11 12:48:00;;;;;;;10.13;6.83;;;;;;;19.85;56.18;97591.06;5084754;28;20196;-82
2022/10/11 12:50:39;;;;;;;11.43;6.33;;;;;;;19.87;55.91;97583.91;5084674;28;20767;-82
2022/10/11 12:53:22;;;;;;;10.33;6.57;;;;;;;19.99;55.48;97582.16;5084582;28;20229;-78
2022/10/11 12:56:07;;;;;;;7.93;5.90;;;;;;;19.93;55.33;97587.84;5085523;28;20195;-78
2022/10/11 12:58:40;;;;;;;10.20;6.40;;;;;;;20.09;54.58;97588.41;5084574;28;20553;-78
2022/10/11 13:01:09;;;;;;;11.23;6.90;;;;;;;20.17;54.02;97578.16;5067240;28;20730;-77
2022/10/11 13:03:43;;;;;;;9.97;6.50;;;;;;;19.87;55.00;97575.16;5083767;28;20293;-77
2022/10/11 13:06:23;;;;;;;9.10;6.10;;;;;;;19.77;54.97;97576.81;5085157;28;20184;-77
2022/10/11 13:09:22;;;;;;;9.57;5.90;;;;;;;19.70;55.30;97571.16;5084413;28;20188;-82
2022/10/11 13:12:12;;;;;;;8.37;5.77;;;;;;;19.67;55.57;97575.81;5083845;28;20184;-77
2022/10/11 13:14:44;;;;;;;10.50;6.50;;;;;;;19.33;56.44;97575.63;5084778;28;20200;-79